AirNav   Everest Fuels
 
 1009 users online  

0FA9 Paradise Landing Seaplane Base
Altamonte Springs, Florida, USA

GOING TO ALTAMONTE SPRINGS?


FAA INFORMATION EFFECTIVE 10 OCTOBER 2019

Location

FAA Identifier: 0FA9
Lat/Long: 28-39-27.0000N 081-22-57.0000W
28-39.450000N 081-22.950000W
28.6575000,-81.3825000
(estimated)
Elevation: 59 ft. / 18 m (estimated)
From city: 2 miles W of ALTAMONTE SPRINGS, FL
Time zone: UTC -4 (UTC -5 during Standard Time)
Zip code: 32701

Seaplane Base Operations

Seaplane Base use: Private use. Permission required prior to landing
Activation date: 09/2011
Control tower: no
ARTCC: JACKSONVILLE CENTER
FSS: SAINT PETERSBURG FLIGHT SERVICE STATION
Attendance: UNATNDD
Wind indicator: yes
Segmented circle: no

Seaplane Base Communications

WX ASOS at ORL (7 nm S): PHONE 407-658-6753
WX ASOS at SFB (11 nm NE): PHONE 407-321-9384
WX ASOS at MCO (14 nm S): PHONE 407-855-5235

Nearby radio navigation aids

VOR radial/distance  VOR name  Freq  Var
ORLr340/7.3ORLANDO VORTAC112.2000E

Seaplane Base Services

Runway Information

Runway 6W/24W

Dimensions: 2782 x 150 ft. / 848 x 46 m
Surface: water
RUNWAY 6W  RUNWAY 24W
Traffic pattern: rightleft

Runway 18W/36W

Dimensions: 2649 x 150 ft. / 807 x 46 m
Surface: water
RUNWAY 18W  RUNWAY 36W
Traffic pattern: leftright

Seaplane Base Ownership and Management from official FAA records

Ownership: Privately-owned
Owner: JACK MCGRATH
509 ARVERN COURT
ALTAMONTE SPRINGS, FL 32701
Phone 407-739-9185
Manager: JACK MCGRATH
509 ARVERN COURT
ALTAMONTE SPRINGS, FL 32701
Phone 407-739-9185

Seaplane Base Operational Statistics

Aircraft based on the field: 1
Single engine airplanes: 1
    

Additional Remarks

FOR CD CTC ORLANDO APCH AT 407-852-7553.

Instrument Procedures

There are no published instrument procedures at 0FA9.

Some nearby airports with instrument procedures:

KORL - Executive Airport (7 nm S)
KSFB - Orlando Sanford International Airport (11 nm NE)
X04 - Orlando Apopka Airport (11 nm W)
KMCO - Orlando International Airport (14 nm S)
X23 - Umatilla Municipal Airport (21 nm NW)
 
Loc | Ops | Rwys | IFR | FBO | Links
Com | Nav | Svcs | Stats | Notes


 
Aerial photo
No photo
 
Airport distance calculator
Flying to Paradise Landing Seaplane Base? Find the distance to fly.

From to 0FA9

Sunrise and sunset
Times for 20-Oct-2019
 Local
(UTC-4)
 Zulu
(UTC)
Morning civil twilight07:0711:07
Sunrise07:3111:31
Sunset18:5022:50
Evening civil twilight19:1423:14

Current date and time
Zulu (UTC)  20-Oct-2019 15:44:08
Local (UTC-4)  20-Oct-2019 11:44:08
 
METAR
KORL 
7nm S 
201533Z 28010KT 10SM SCT023 28/22 A2994 RMK AO2 T02830222
KSFB 
11nm NE 
201510Z 26013G16KT 10SM SCT019 28/23 A2993 RMK AO2 T02780228 $
KMCO 
15nm S 
201453Z 26011KT 10SM SCT025 29/22 A2994 RMK AO2 SLP137 T02890217 51016
TAF
KSFB 
11nm NE 
201138Z 2012/2112 23006KT P6SM FEW008 FM201300 24008KT P6SM SCT020 SCT250 TEMPO 2013/2015 BKN025 FM201800 27007KT P6SM SCT040 SCT250 FM202300 30004KT P6SM SCT250 FM210200 VRB03KT P6SM FEW040 SCT250
KMCO 
15nm S 
201138Z 2012/2118 20007KT P6SM SCT006 FM201300 24008KT P6SM SCT020 SCT250 TEMPO 2013/2015 BKN025 FM201800 27009KT P6SM SCT040 SCT250 FM202300 30004KT P6SM SCT250 FM210200 VRB03KT P6SM FEW040 SCT250 FM211400 16005KT P6SM SCT040 SCT060
NOTAMs
Click for the latest NOTAMs
NOTAMs are issued by the DoD/FAA and will open in a separate window not controlled by AirNav.

 

 
 

Would you like to see your business listed on this page?

 If your business provides an interesting product or service to pilots, flight crews, aircraft, or users of the Paradise Landing Seaplane Base, you should consider listing it here.  To start the listing process, click on the button below
 
Add a business
 

Other Pages about Paradise Landing Seaplane Base

Update a link
 
Copyright © AirNav, LLC. All rights reserved. Privacy Policy  Contact